Time;durP1;ratioP1;P1;durP2;ratioP2;P2;SDS_P1;SDS_P2;PMS_P1;PMS_P2;Temp;Humidity;BMP_temperature;BMP_pressure;BME280_temperature;BME280_humidity;BME280_pressure;Samples;Min_cycle;Max_cycle;Signal;HPM_P1;HPM_P2
2023/05/13 00:01:42;;;;;;;0.60;0.60;;;;;;;;;;4939446;29;20527;-76
2023/05/13 00:04:10;;;;;;;0.70;0.70;;;;;;;;;;4937031;29;20558;-76
2023/05/13 00:06:37;;;;;;;0.60;0.60;;;;;;;;;;4941794;29;20468;-75
2023/05/13 00:09:04;;;;;;;0.60;0.60;;;;;;;;;;4943798;28;20538;-76
2023/05/13 00:11:31;;;;;;;0.80;0.80;;;;;;;;;;4936174;29;20437;-76
2023/05/13 00:13:58;;;;;;;0.60;0.60;;;;;;;;;;4942640;29;20436;-74
2023/05/13 00:16:26;;;;;;;0.90;0.90;;;;;;;;;;4943988;29;20440;-76
2023/05/13 00:18:53;;;;;;;0.60;0.60;;;;;;;;;;4937806;29;20474;-74
2023/05/13 00:21:22;;;;;;;0.60;0.60;;;;;;;;;;4945647;29;20438;-76
2023/05/13 00:23:49;;;;;;;0.60;0.60;;;;;;;;;;4938308;29;20472;-76
2023/05/13 00:26:18;;;;;;;0.70;0.60;;;;;;;;;;4938397;29;20436;-74
2023/05/13 00:28:47;;;;;;;0.70;0.70;;;;;;;;;;4925409;29;20446;-76
2023/05/13 00:31:13;;;;;;;0.70;0.70;;;;;;;;;;4944123;28;20539;-76
2023/05/13 00:33:40;;;;;;;0.70;0.70;;;;;;;;;;4937697;29;20469;-76
2023/05/13 00:36:09;;;;;;;0.70;0.70;;;;;;;;;;4945711;28;20441;-75
2023/05/13 00:38:37;;;;;;;0.90;0.90;;;;;;;;;;4938714;29;20455;-74
2023/05/13 00:41:04;;;;;;;0.70;0.70;;;;;;;;;;4954685;28;20482;-76
2023/05/13 00:43:31;;;;;;;0.70;0.70;;;;;;;;;;4940916;29;20515;-76
2023/05/13 00:45:58;;;;;;;0.63;0.60;;;;;;;;;;4949795;28;20453;-76
2023/05/13 00:48:25;;;;;;;0.70;0.60;;;;;;;;;;4940587;28;20475;-76
2023/05/13 00:50:52;;;;;;;0.70;0.70;;;;;;;;;;4937268;29;20541;-77
2023/05/13 00:53:19;;;;;;;0.70;0.70;;;;;;;;;;4937356;29;20829;-75
2023/05/13 00:55:47;;;;;;;0.70;0.60;;;;;;;;;;4924011;29;20442;-78
2023/05/13 00:58:16;;;;;;;1.93;1.10;;;;;;;;;;4943198;29;20449;-77
2023/05/13 01:00:51;;;;;;;1.80;1.70;;;;;;;;;;4941762;29;20444;-77
2023/05/13 01:03:20;;;;;;;0.70;0.70;;;;;;;;;;4921664;29;20479;-74
2023/05/13 01:05:51;;;;;;;0.70;0.60;;;;;;;;;;4941548;29;20467;-75
2023/05/13 01:08:21;;;;;;;0.70;0.60;;;;;;;;;;4943614;29;20796;-76
2023/05/13 01:10:51;;;;;;;0.70;0.63;;;;;;;;;;4928402;29;20959;-77
2023/05/13 01:13:22;;;;;;;0.60;0.60;;;;;;;;;;4936473;29;20528;-77
2023/05/13 01:15:51;;;;;;;0.83;0.83;;;;;;;;;;4943285;29;20434;-75
2023/05/13 01:18:19;;;;;;;0.80;0.80;;;;;;;;;;4936831;29;21259;-75
2023/05/13 01:20:46;;;;;;;0.70;0.60;;;;;;;;;;4937880;29;20480;-78
2023/05/13 01:23:14;;;;;;;0.70;0.70;;;;;;;;;;4919922;29;21546;-75
2023/05/13 01:25:41;;;;;;;0.73;0.73;;;;;;;;;;4940274;29;20458;-76
2023/05/13 01:28:08;;;;;;;0.80;0.80;;;;;;;;;;4923584;29;20849;-76
2023/05/13 01:30:38;;;;;;;0.70;0.70;;;;;;;;;;4940409;29;20847;-76
2023/05/13 01:33:05;;;;;;;0.70;0.70;;;;;;;;;;4936729;29;20530;-76
2023/05/13 01:35:32;;;;;;;0.83;0.83;;;;;;;;;;4939632;29;20442;-76
2023/05/13 01:38:00;;;;;;;0.60;0.60;;;;;;;;;;4940662;28;20476;-77
2023/05/13 01:40:28;;;;;;;0.70;0.70;;;;;;;;;;4936834;29;20504;-77
2023/05/13 01:43:05;;;;;;;0.70;0.70;;;;;;;;;;4936906;29;20514;-76
2023/05/13 01:45:35;;;;;;;0.60;0.60;;;;;;;;;;4950169;28;20475;-75
2023/05/13 01:48:03;;;;;;;0.60;0.60;;;;;;;;;;4934107;29;20461;-76
2023/05/13 01:50:39;;;;;;;0.70;0.70;;;;;;;;;;4934203;29;20494;-75
2023/05/13 01:53:06;;;;;;;0.80;0.80;;;;;;;;;;4939220;29;21059;-75
2023/05/13 01:55:35;;;;;;;0.70;0.60;;;;;;;;;;4938362;29;20521;-74
2023/05/13 01:58:03;;;;;;;0.70;0.60;;;;;;;;;;4922868;29;20489;-75
2023/05/13 02:00:30;;;;;;;0.70;0.60;;;;;;;;;;4937609;29;20456;-76
2023/05/13 02:02:57;;;;;;;0.60;0.60;;;;;;;;;;4942522;29;20453;-76
2023/05/13 02:05:24;;;;;;;2.00;1.90;;;;;;;;;;4924235;29;20480;-76
2023/05/13 02:07:53;;;;;;;0.70;0.70;;;;;;;;;;4940009;29;20573;-77
2023/05/13 02:10:20;;;;;;;2.17;1.53;;;;;;;;;;4941754;29;20465;-75
2023/05/13 02:12:48;;;;;;;0.70;0.60;;;;;;;;;;4940488;29;20463;-74
2023/05/13 02:15:16;;;;;;;0.60;0.60;;;;;;;;;;4942661;28;20443;-76
2023/05/13 02:17:43;;;;;;;0.93;0.90;;;;;;;;;;4948011;29;20640;-77
2023/05/13 02:20:11;;;;;;;0.70;0.60;;;;;;;;;;4940708;29;20977;-74
2023/05/13 02:22:38;;;;;;;0.70;0.70;;;;;;;;;;4936700;29;20872;-76
2023/05/13 02:25:06;;;;;;;0.60;0.60;;;;;;;;;;4937380;29;20487;-74
2023/05/13 02:27:35;;;;;;;0.60;0.60;;;;;;;;;;4938714;29;20937;-75
2023/05/13 02:30:05;;;;;;;4.30;1.57;;;;;;;;;;4936587;29;20454;-74
2023/05/13 02:32:32;;;;;;;2.90;2.80;;;;;;;;;;4924708;29;20455;-76
2023/05/13 02:34:59;;;;;;;0.80;0.80;;;;;;;;;;4940728;28;20854;-76
2023/05/13 02:37:26;;;;;;;0.70;0.70;;;;;;;;;;4946007;29;20468;-76
2023/05/13 02:39:59;;;;;;;0.60;0.60;;;;;;;;;;4943494;29;20502;-77
2023/05/13 02:42:26;;;;;;;0.60;0.57;;;;;;;;;;4942633;29;20804;-77
2023/05/13 02:44:53;;;;;;;1.40;1.30;;;;;;;;;;4905646;29;20473;-77
2023/05/13 02:47:24;;;;;;;0.60;0.60;;;;;;;;;;4940171;28;20815;-77
2023/05/13 02:49:51;;;;;;;0.60;0.60;;;;;;;;;;4944421;28;20456;-75
2023/05/13 02:52:18;;;;;;;0.70;0.70;;;;;;;;;;4928048;29;20816;-76
2023/05/13 02:54:45;;;;;;;0.70;0.70;;;;;;;;;;4946802;28;20937;-75
2023/05/13 02:57:13;;;;;;;1.10;1.10;;;;;;;;;;4934604;29;20518;-76
2023/05/13 02:59:41;;;;;;;0.60;0.60;;;;;;;;;;4938600;29;20462;-76
2023/05/13 03:02:08;;;;;;;0.90;0.90;;;;;;;;;;4945972;29;20455;-76
2023/05/13 03:04:36;;;;;;;0.70;0.70;;;;;;;;;;4947502;28;20487;-77
2023/05/13 03:07:03;;;;;;;1.03;1.03;;;;;;;;;;4937056;29;20464;-76
2023/05/13 03:09:30;;;;;;;0.80;0.80;;;;;;;;;;4923211;29;20782;-76
2023/05/13 03:11:57;;;;;;;0.70;0.70;;;;;;;;;;4944271;28;20863;-76
2023/05/13 03:14:24;;;;;;;0.60;0.60;;;;;;;;;;4943145;29;20435;-76
2023/05/13 03:16:50;;;;;;;0.63;0.63;;;;;;;;;;4941872;29;20458;-77
2023/05/13 03:19:17;;;;;;;0.63;0.63;;;;;;;;;;4944466;29;20444;-77
2023/05/13 03:21:46;;;;;;;0.70;0.60;;;;;;;;;;4947612;28;20495;-77
2023/05/13 03:24:14;;;;;;;0.63;0.63;;;;;;;;;;4922631;29;20538;-78
2023/05/13 03:26:41;;;;;;;0.60;0.60;;;;;;;;;;4937805;29;20514;-77
2023/05/13 03:29:08;;;;;;;0.60;0.57;;;;;;;;;;4925802;29;20448;-77
2023/05/13 03:31:36;;;;;;;0.60;0.60;;;;;;;;;;4939388;29;20547;-76
2023/05/13 03:34:04;;;;;;;0.70;0.70;;;;;;;;;;4936819;29;20454;-77
2023/05/13 03:36:32;;;;;;;0.70;0.63;;;;;;;;;;4944017;29;20973;-76
2023/05/13 03:39:01;;;;;;;0.60;0.60;;;;;;;;;;4943004;28;20838;-77
2023/05/13 03:41:29;;;;;;;0.60;0.60;;;;;;;;;;4954636;28;20526;-74
2023/05/13 03:43:58;;;;;;;0.60;0.60;;;;;;;;;;4924307;29;20466;-76
2023/05/13 03:46:26;;;;;;;0.70;0.60;;;;;;;;;;4942616;28;20464;-76
2023/05/13 03:48:54;;;;;;;0.70;0.67;;;;;;;;;;4925095;29;20460;-75
2023/05/13 03:51:21;;;;;;;0.60;0.60;;;;;;;;;;4917787;29;20455;-76
2023/05/13 03:53:49;;;;;;;0.60;0.60;;;;;;;;;;4939975;29;20543;-76
2023/05/13 03:56:18;;;;;;;0.60;0.60;;;;;;;;;;4941359;29;20547;-76
2023/05/13 03:58:46;;;;;;;0.90;0.90;;;;;;;;;;4921681;29;21055;-77
2023/05/13 04:01:12;;;;;;;0.60;0.60;;;;;;;;;;4946243;28;20450;-74
2023/05/13 04:03:41;;;;;;;0.60;0.60;;;;;;;;;;4956133;28;20437;-76
2023/05/13 04:06:08;;;;;;;0.70;0.70;;;;;;;;;;4936886;29;20509;-75
2023/05/13 04:08:35;;;;;;;0.60;0.60;;;;;;;;;;4937527;29;20456;-75
2023/05/13 04:11:02;;;;;;;0.60;0.60;;;;;;;;;;4944193;29;20841;-76
2023/05/13 04:13:33;;;;;;;0.60;0.60;;;;;;;;;;4923766;29;20453;-74
2023/05/13 04:16:01;;;;;;;0.70;0.60;;;;;;;;;;4936181;29;20443;-76
2023/05/13 04:18:28;;;;;;;1.43;1.17;;;;;;;;;;4928799;29;20454;-76
2023/05/13 04:20:55;;;;;;;0.80;0.80;;;;;;;;;;4935918;29;20445;-75
2023/05/13 04:23:22;;;;;;;0.60;0.60;;;;;;;;;;4936572;29;20475;-76
2023/05/13 04:25:49;;;;;;;0.77;0.77;;;;;;;;;;4932676;29;20822;-76
2023/05/13 04:28:16;;;;;;;0.63;0.60;;;;;;;;;;4936921;29;20464;-76
2023/05/13 04:30:45;;;;;;;0.60;0.50;;;;;;;;;;4922402;29;20515;-76
2023/05/13 04:33:12;;;;;;;0.60;0.60;;;;;;;;;;4938265;28;20493;-76
2023/05/13 04:35:41;;;;;;;0.70;0.70;;;;;;;;;;4936922;29;20535;-75
2023/05/13 04:38:11;;;;;;;0.60;0.60;;;;;;;;;;4943828;28;20469;-76
2023/05/13 04:40:38;;;;;;;0.60;0.60;;;;;;;;;;4937336;29;20535;-74
2023/05/13 04:43:10;;;;;;;0.73;0.73;;;;;;;;;;4934189;29;20812;-74
2023/05/13 04:45:52;;;;;;;0.60;0.60;;;;;;;;;;4921116;29;20586;-77
2023/05/13 04:48:19;;;;;;;0.60;0.60;;;;;;;;;;4920185;29;20470;-76
2023/05/13 04:50:46;;;;;;;0.60;0.60;;;;;;;;;;4935998;29;20452;-74
2023/05/13 04:53:15;;;;;;;0.60;0.60;;;;;;;;;;4921991;29;20483;-75
2023/05/13 04:55:45;;;;;;;0.70;0.70;;;;;;;;;;4934214;29;20479;-76
2023/05/13 04:58:12;;;;;;;0.60;0.60;;;;;;;;;;4937822;29;20441;-75
2023/05/13 05:00:39;;;;;;;0.60;0.60;;;;;;;;;;4936585;29;20450;-76
2023/05/13 05:03:07;;;;;;;0.60;0.60;;;;;;;;;;4938697;29;20502;-76
2023/05/13 05:05:34;;;;;;;0.70;0.70;;;;;;;;;;4924798;29;20484;-77
2023/05/13 05:08:01;;;;;;;0.70;0.70;;;;;;;;;;4946354;29;20569;-76
2023/05/13 05:10:28;;;;;;;0.90;0.90;;;;;;;;;;4936941;29;20453;-76
2023/05/13 05:12:58;;;;;;;0.60;0.60;;;;;;;;;;4922339;29;20965;-76
2023/05/13 05:15:24;;;;;;;0.70;0.60;;;;;;;;;;4939898;28;20450;-75
2023/05/13 05:17:55;;;;;;;0.70;0.70;;;;;;;;;;4947828;29;20461;-78
2023/05/13 05:20:24;;;;;;;0.70;0.70;;;;;;;;;;4925518;29;20468;-79
2023/05/13 05:22:54;;;;;;;0.60;0.60;;;;;;;;;;4924120;29;20474;-77
2023/05/13 05:25:23;;;;;;;1.30;1.00;;;;;;;;;;4932739;29;20496;-76
2023/05/13 05:27:50;;;;;;;0.70;0.70;;;;;;;;;;4933492;29;20456;-76
2023/05/13 05:30:17;;;;;;;1.07;1.07;;;;;;;;;;4933882;29;20905;-76
2023/05/13 05:32:51;;;;;;;0.70;0.70;;;;;;;;;;4940458;29;20483;-77
2023/05/13 05:35:18;;;;;;;1.77;1.67;;;;;;;;;;4941115;29;20452;-77
2023/05/13 05:37:47;;;;;;;0.80;0.80;;;;;;;;;;4941499;29;20542;-77
2023/05/13 05:40:14;;;;;;;0.60;0.60;;;;;;;;;;4937050;29;20458;-78
2023/05/13 05:42:41;;;;;;;1.17;1.07;;;;;;;;;;4941916;28;20547;-79
2023/05/13 05:45:08;;;;;;;0.60;0.60;;;;;;;;;;4943659;29;20485;-77
2023/05/13 05:47:36;;;;;;;0.70;0.70;;;;;;;;;;4935822;28;20461;-77
2023/05/13 05:50:04;;;;;;;0.60;0.60;;;;;;;;;;4939487;29;20449;-76
2023/05/13 05:52:31;;;;;;;1.83;1.27;;;;;;;;;;4939343;29;20511;-77
2023/05/13 05:55:00;;;;;;;0.70;0.70;;;;;;;;;;4947140;28;20805;-76
2023/05/13 05:57:27;;;;;;;1.47;1.37;;;;;;;;;;4941563;29;20495;-78
2023/05/13 05:59:54;;;;;;;1.77;1.67;;;;;;;;;;4941149;29;20433;-78
2023/05/13 06:02:22;;;;;;;4.43;1.37;;;;;;;;;;4936410;29;20469;-78
2023/05/13 06:04:51;;;;;;;0.73;0.73;;;;;;;;;;4937889;29;20540;-78
2023/05/13 06:07:18;;;;;;;1.43;1.33;;;;;;;;;;4940877;29;20491;-77
2023/05/13 06:09:45;;;;;;;0.67;0.67;;;;;;;;;;4925232;29;20473;-77
2023/05/13 06:12:14;;;;;;;1.47;1.30;;;;;;;;;;4935677;29;20947;-78
2023/05/13 06:14:41;;;;;;;2.10;2.00;;;;;;;;;;4935623;29;20499;-79
2023/05/13 06:17:08;;;;;;;0.70;0.70;;;;;;;;;;4939687;28;20541;-79
2023/05/13 06:19:35;;;;;;;0.83;0.83;;;;;;;;;;4936975;29;20437;-78
2023/05/13 06:22:02;;;;;;;0.70;0.70;;;;;;;;;;4925410;29;21011;-79
2023/05/13 06:24:30;;;;;;;0.60;0.60;;;;;;;;;;4942188;29;20460;-80
2023/05/13 06:26:57;;;;;;;0.80;0.80;;;;;;;;;;4939698;29;20533;-79
2023/05/13 06:29:25;;;;;;;0.80;0.80;;;;;;;;;;4921538;29;20460;-77
2023/05/13 06:31:52;;;;;;;1.00;1.00;;;;;;;;;;4938005;29;20565;-77
2023/05/13 06:34:19;;;;;;;1.30;1.00;;;;;;;;;;4937058;29;20954;-80
2023/05/13 06:36:46;;;;;;;0.70;0.70;;;;;;;;;;4917458;29;20625;-77
2023/05/13 06:39:13;;;;;;;0.60;0.60;;;;;;;;;;4938682;29;20509;-78
2023/05/13 06:41:40;;;;;;;1.67;1.43;;;;;;;;;;4919069;29;20833;-78
2023/05/13 06:44:11;;;;;;;0.80;0.80;;;;;;;;;;4935930;29;20482;-78
2023/05/13 06:46:45;;;;;;;1.30;1.20;;;;;;;;;;4935362;29;20570;-78
2023/05/13 06:49:12;;;;;;;0.70;0.60;;;;;;;;;;4935458;29;20950;-78
2023/05/13 06:51:39;;;;;;;0.60;0.60;;;;;;;;;;4933902;29;20465;-76
2023/05/13 06:54:06;;;;;;;0.80;0.80;;;;;;;;;;4941278;29;20459;-74
2023/05/13 06:56:33;;;;;;;0.70;0.60;;;;;;;;;;4923320;29;20933;-76
2023/05/13 06:59:00;;;;;;;0.67;0.63;;;;;;;;;;4941503;29;20473;-77
2023/05/13 07:01:27;;;;;;;0.70;0.70;;;;;;;;;;4942320;28;20451;-77
2023/05/13 07:03:56;;;;;;;0.90;0.90;;;;;;;;;;4947591;29;20472;-77
2023/05/13 07:06:22;;;;;;;0.80;0.80;;;;;;;;;;4947864;29;20501;-76
2023/05/13 07:08:49;;;;;;;0.70;0.70;;;;;;;;;;4941300;29;20442;-76
2023/05/13 07:11:17;;;;;;;0.70;0.67;;;;;;;;;;4939760;29;20528;-77
2023/05/13 07:13:44;;;;;;;0.60;0.60;;;;;;;;;;4941579;29;20498;-75
2023/05/13 07:16:12;;;;;;;0.80;0.80;;;;;;;;;;4941641;29;20436;-76
2023/05/13 07:18:39;;;;;;;1.17;0.97;;;;;;;;;;4942013;29;20443;-75
2023/05/13 07:21:07;;;;;;;0.80;0.80;;;;;;;;;;4943205;29;20933;-76
2023/05/13 07:23:34;;;;;;;1.07;1.03;;;;;;;;;;4936744;29;20484;-75
2023/05/13 07:26:01;;;;;;;0.87;0.87;;;;;;;;;;4938466;29;20498;-75
2023/05/13 07:28:28;;;;;;;0.70;0.70;;;;;;;;;;4940575;29;20441;-75
2023/05/13 07:30:55;;;;;;;0.77;0.77;;;;;;;;;;4945527;29;20445;-75
2023/05/13 07:33:22;;;;;;;0.70;0.70;;;;;;;;;;4942878;29;20460;-74
2023/05/13 07:35:49;;;;;;;0.70;0.60;;;;;;;;;;4945849;29;20450;-76
2023/05/13 07:38:17;;;;;;;2.10;2.00;;;;;;;;;;4938112;29;21036;-75
2023/05/13 07:40:44;;;;;;;0.80;0.80;;;;;;;;;;4943664;29;20922;-75
2023/05/13 07:43:12;;;;;;;0.70;0.70;;;;;;;;;;4938522;29;20484;-76
2023/05/13 07:45:41;;;;;;;0.80;0.73;;;;;;;;;;4939834;29;20505;-77
2023/05/13 07:48:08;;;;;;;0.70;0.67;;;;;;;;;;4945132;29;20806;-76
2023/05/13 07:50:36;;;;;;;0.77;0.77;;;;;;;;;;4958172;28;20533;-76
2023/05/13 07:53:03;;;;;;;0.80;0.77;;;;;;;;;;4940407;29;20550;-76
2023/05/13 07:55:31;;;;;;;0.70;0.60;;;;;;;;;;4948536;29;20530;-75
2023/05/13 07:57:58;;;;;;;1.47;1.37;;;;;;;;;;4940478;29;20457;-76
2023/05/13 08:00:25;;;;;;;3.23;1.87;;;;;;;;;;4940939;29;20455;-75
2023/05/13 08:02:52;;;;;;;1.93;1.57;;;;;;;;;;4942607;29;21069;-76
2023/05/13 08:05:19;;;;;;;0.90;0.90;;;;;;;;;;4938692;29;20461;-74
2023/05/13 08:07:47;;;;;;;0.70;0.70;;;;;;;;;;4942730;29;21075;-78
2023/05/13 08:10:14;;;;;;;0.90;0.90;;;;;;;;;;4942690;29;20528;-79
2023/05/13 08:12:43;;;;;;;0.80;0.70;;;;;;;;;;4943896;29;20452;-78
2023/05/13 08:15:13;;;;;;;0.70;0.70;;;;;;;;;;4943874;28;20437;-78
2023/05/13 08:17:39;;;;;;;0.80;0.73;;;;;;;;;;4938573;29;20436;-76
2023/05/13 08:20:06;;;;;;;0.70;0.63;;;;;;;;;;4944749;29;20518;-77
2023/05/13 08:22:35;;;;;;;0.80;0.80;;;;;;;;;;4943089;29;20460;-79
2023/05/13 08:25:02;;;;;;;0.70;0.70;;;;;;;;;;4929340;29;20445;-76
2023/05/13 08:27:29;;;;;;;0.90;0.90;;;;;;;;;;4950376;29;20547;-77
2023/05/13 08:29:57;;;;;;;0.87;0.87;;;;;;;;;;4940231;29;20425;-76
2023/05/13 08:32:25;;;;;;;0.70;0.70;;;;;;;;;;4949648;28;20511;-78
2023/05/13 08:34:52;;;;;;;0.80;0.80;;;;;;;;;;4937232;29;20492;-77
2023/05/13 08:37:19;;;;;;;0.70;0.70;;;;;;;;;;4937793;28;20468;-76
2023/05/13 08:39:45;;;;;;;1.03;0.93;;;;;;;;;;4939306;29;20543;-75
2023/05/13 08:42:17;;;;;;;0.70;0.60;;;;;;;;;;4937743;29;20916;-74
2023/05/13 08:44:45;;;;;;;0.70;0.70;;;;;;;;;;4938354;29;20457;-74
2023/05/13 08:47:20;;;;;;;0.80;0.70;;;;;;;;;;4942777;29;20477;-75
2023/05/13 08:49:52;;;;;;;0.70;0.60;;;;;;;;;;4943850;29;20460;-76
2023/05/13 08:52:19;;;;;;;0.70;0.60;;;;;;;;;;4939053;29;20467;-74
2023/05/13 08:54:48;;;;;;;0.70;0.70;;;;;;;;;;4921250;29;20917;-75
2023/05/13 08:57:15;;;;;;;0.70;0.60;;;;;;;;;;4935113;29;20437;-75
2023/05/13 08:59:42;;;;;;;0.70;0.70;;;;;;;;;;4944623;29;20539;-76
2023/05/13 09:02:09;;;;;;;0.70;0.60;;;;;;;;;;4942470;29;20564;-77
2023/05/13 09:04:38;;;;;;;0.70;0.70;;;;;;;;;;4940555;29;20449;-75
2023/05/13 09:07:05;;;;;;;0.70;0.60;;;;;;;;;;4935261;29;20491;-77
2023/05/13 09:09:32;;;;;;;0.70;0.63;;;;;;;;;;4932291;29;20441;-76
2023/05/13 09:11:58;;;;;;;2.70;1.47;;;;;;;;;;4935934;29;20440;-76
2023/05/13 09:14:28;;;;;;;1.10;0.90;;;;;;;;;;4932751;29;20475;-77
2023/05/13 09:16:55;;;;;;;0.70;0.70;;;;;;;;;;4940691;29;20448;-75
2023/05/13 09:19:22;;;;;;;0.80;0.70;;;;;;;;;;4943483;29;20475;-76
2023/05/13 09:21:51;;;;;;;1.37;1.30;;;;;;;;;;4939076;29;20485;-77
2023/05/13 09:24:20;;;;;;;0.70;0.70;;;;;;;;;;4937768;29;20538;-77
2023/05/13 09:26:47;;;;;;;0.70;0.60;;;;;;;;;;4945072;29;20472;-75
2023/05/13 09:29:18;;;;;;;0.83;0.83;;;;;;;;;;4937160;29;20448;-76
2023/05/13 09:31:47;;;;;;;1.10;1.00;;;;;;;;;;4939115;29;20429;-76
2023/05/13 09:34:20;;;;;;;0.70;0.60;;;;;;;;;;4940534;29;20877;-77
2023/05/13 09:36:54;;;;;;;2.50;1.10;;;;;;;;;;4940746;29;20498;-76
2023/05/13 09:39:22;;;;;;;1.83;1.73;;;;;;;;;;4924754;29;20980;-75
2023/05/13 09:41:48;;;;;;;1.13;1.07;;;;;;;;;;4941501;29;20445;-74
2023/05/13 09:44:15;;;;;;;0.70;0.60;;;;;;;;;;4937610;29;20957;-76
2023/05/13 09:46:42;;;;;;;1.03;0.90;;;;;;;;;;4943506;29;20492;-75
2023/05/13 09:49:10;;;;;;;0.70;0.60;;;;;;;;;;4936675;29;20447;-75
2023/05/13 09:51:37;;;;;;;1.17;0.90;;;;;;;;;;4924455;29;20466;-77
2023/05/13 09:54:06;;;;;;;0.70;0.50;;;;;;;;;;4940868;29;20445;-75
2023/05/13 09:56:33;;;;;;;1.40;0.87;;;;;;;;;;4941912;29;20926;-77
2023/05/13 09:59:02;;;;;;;0.70;0.70;;;;;;;;;;4938608;29;20444;-76
2023/05/13 10:01:29;;;;;;;0.70;0.50;;;;;;;;;;4940449;29;20448;-75
2023/05/13 10:03:58;;;;;;;0.87;0.80;;;;;;;;;;4940598;29;20527;-76
2023/05/13 10:06:29;;;;;;;1.00;0.90;;;;;;;;;;4938514;29;20480;-75
2023/05/13 10:08:57;;;;;;;0.70;0.50;;;;;;;;;;4937358;29;20476;-76
2023/05/13 10:11:26;;;;;;;1.00;0.90;;;;;;;;;;4938653;29;20429;-75
2023/05/13 10:13:56;;;;;;;1.27;0.80;;;;;;;;;;4938865;29;20449;-76
2023/05/13 10:16:23;;;;;;;0.80;0.60;;;;;;;;;;4939368;29;20436;-76
2023/05/13 10:18:51;;;;;;;0.70;0.60;;;;;;;;;;4944818;29;20440;-76
2023/05/13 10:21:18;;;;;;;0.80;0.80;;;;;;;;;;4937422;29;20451;-77
2023/05/13 10:23:46;;;;;;;0.70;0.60;;;;;;;;;;4922936;29;20461;-77
2023/05/13 10:26:13;;;;;;;1.07;0.97;;;;;;;;;;4939590;29;20808;-75
2023/05/13 10:28:42;;;;;;;0.93;0.83;;;;;;;;;;4941711;29;20535;-76
2023/05/13 10:31:09;;;;;;;0.80;0.77;;;;;;;;;;4932363;29;20863;-76
2023/05/13 10:33:36;;;;;;;1.43;1.33;;;;;;;;;;4941573;29;20956;-76
2023/05/13 10:36:11;;;;;;;0.90;0.80;;;;;;;;;;4934521;29;20935;-76
2023/05/13 10:38:49;;;;;;;1.03;0.87;;;;;;;;;;4958153;28;20499;-77
2023/05/13 10:41:28;;;;;;;0.90;0.73;;;;;;;;;;4942154;29;21004;-76
2023/05/13 10:43:57;;;;;;;0.70;0.60;;;;;;;;;;4928962;29;21034;-79
2023/05/13 10:46:24;;;;;;;1.53;1.17;;;;;;;;;;4940974;29;20976;-75
2023/05/13 10:48:54;;;;;;;0.73;0.67;;;;;;;;;;4929527;29;20458;-76
2023/05/13 10:51:22;;;;;;;0.73;0.70;;;;;;;;;;4942106;29;20448;-75
2023/05/13 10:53:50;;;;;;;0.80;0.80;;;;;;;;;;4945756;29;21115;-76
2023/05/13 10:56:18;;;;;;;0.70;0.70;;;;;;;;;;4940542;29;21025;-76
2023/05/13 10:58:56;;;;;;;0.70;0.60;;;;;;;;;;4939292;29;20429;-76
2023/05/13 11:01:27;;;;;;;0.80;0.80;;;;;;;;;;4944188;29;20452;-76
2023/05/13 11:03:55;;;;;;;1.67;1.57;;;;;;;;;;4939401;29;20437;-76
2023/05/13 11:06:25;;;;;;;0.70;0.70;;;;;;;;;;4924617;29;20474;-76
2023/05/13 11:08:52;;;;;;;2.20;1.37;;;;;;;;;;4941148;29;20433;-75
2023/05/13 11:11:23;;;;;;;1.00;0.90;;;;;;;;;;4939330;29;20444;-77
2023/05/13 11:13:51;;;;;;;0.73;0.70;;;;;;;;;;4945396;28;20443;-77
2023/05/13 11:16:18;;;;;;;1.20;1.10;;;;;;;;;;4921625;29;20443;-76
2023/05/13 11:18:46;;;;;;;0.80;0.70;;;;;;;;;;4942718;29;20468;-77
2023/05/13 11:21:13;;;;;;;0.80;0.70;;;;;;;;;;4940032;29;20492;-75
2023/05/13 11:23:54;;;;;;;4.03;0.83;;;;;;;;;;4942257;29;20437;-75
2023/05/13 11:26:21;;;;;;;0.70;0.60;;;;;;;;;;4943979;29;20449;-76
2023/05/13 11:28:52;;;;;;;0.70;0.60;;;;;;;;;;4951944;28;20465;-76
2023/05/13 11:31:20;;;;;;;0.77;0.73;;;;;;;;;;4943513;29;20508;-75
2023/05/13 11:34:11;;;;;;;0.70;0.60;;;;;;;;;;4931344;29;20981;-77
2023/05/13 11:36:39;;;;;;;0.70;0.60;;;;;;;;;;4929406;29;20465;-81
2023/05/13 11:39:07;;;;;;;0.70;0.60;;;;;;;;;;4941948;29;20482;-77
2023/05/13 11:41:35;;;;;;;0.80;0.73;;;;;;;;;;4942471;29;20424;-81
2023/05/13 11:44:03;;;;;;;0.70;0.70;;;;;;;;;;4949527;28;20456;-77
2023/05/13 11:46:30;;;;;;;0.70;0.70;;;;;;;;;;4941348;29;20536;-78
2023/05/13 11:48:57;;;;;;;0.80;0.80;;;;;;;;;;4928016;29;20544;-78
2023/05/13 11:51:26;;;;;;;0.77;0.70;;;;;;;;;;4945547;29;20502;-78
2023/05/13 11:54:01;;;;;;;0.70;0.70;;;;;;;;;;4926948;29;20442;-79
2023/05/13 11:56:28;;;;;;;0.70;0.60;;;;;;;;;;4920617;29;20462;-78
2023/05/13 11:59:11;;;;;;;0.70;0.70;;;;;;;;;;4925905;29;20997;-79
2023/05/13 12:01:38;;;;;;;0.70;0.60;;;;;;;;;;4940532;29;20468;-80
2023/05/13 12:04:06;;;;;;;0.80;0.70;;;;;;;;;;4944783;29;20464;-80
2023/05/13 12:06:41;;;;;;;0.70;0.70;;;;;;;;;;4947301;29;21057;-79
2023/05/13 12:09:10;;;;;;;0.70;0.70;;;;;;;;;;4942824;29;20427;-78
2023/05/13 12:11:38;;;;;;;0.70;0.70;;;;;;;;;;4925671;29;20436;-78
2023/05/13 12:14:05;;;;;;;0.70;0.70;;;;;;;;;;4945020;29;20431;-78
2023/05/13 12:16:32;;;;;;;0.70;0.70;;;;;;;;;;4935634;29;20440;-79
2023/05/13 12:19:03;;;;;;;0.70;0.70;;;;;;;;;;4940265;29;20408;-79
2023/05/13 12:21:31;;;;;;;0.70;0.70;;;;;;;;;;4939221;29;20811;-79
2023/05/13 12:24:15;;;;;;;0.70;0.63;;;;;;;;;;4938657;29;20403;-80
2023/05/13 12:26:41;;;;;;;0.70;0.60;;;;;;;;;;4939346;29;20433;-80
2023/05/13 12:29:13;;;;;;;0.70;0.60;;;;;;;;;;4941861;29;20431;-81
2023/05/13 12:31:42;;;;;;;0.70;0.60;;;;;;;;;;4937772;29;20486;-80
2023/05/13 12:34:09;;;;;;;1.23;1.17;;;;;;;;;;4933979;29;20500;-81
2023/05/13 12:36:37;;;;;;;1.30;1.20;;;;;;;;;;4935404;29;20805;-81
2023/05/13 12:39:07;;;;;;;1.17;1.07;;;;;;;;;;4940318;29;20460;-79
2023/05/13 12:41:36;;;;;;;0.70;0.60;;;;;;;;;;4939837;29;20799;-81
2023/05/13 12:44:03;;;;;;;0.80;0.70;;;;;;;;;;4934171;29;20450;-80
2023/05/13 12:46:31;;;;;;;0.70;0.60;;;;;;;;;;4948420;29;20962;-81
2023/05/13 12:49:01;;;;;;;0.70;0.70;;;;;;;;;;4945433;29;20452;-79
2023/05/13 12:51:32;;;;;;;0.73;0.67;;;;;;;;;;4940783;29;20505;-79
2023/05/13 12:53:59;;;;;;;0.80;0.70;;;;;;;;;;4945618;29;20432;-79
2023/05/13 12:56:28;;;;;;;0.87;0.87;;;;;;;;;;4943680;29;20938;-80
2023/05/13 12:58:58;;;;;;;0.70;0.70;;;;;;;;;;4936844;29;20464;-79
2023/05/13 13:01:25;;;;;;;0.80;0.70;;;;;;;;;;4940672;29;20436;-82
2023/05/13 13:03:51;;;;;;;0.80;0.70;;;;;;;;;;4942016;29;20830;-80
2023/05/13 13:06:22;;;;;;;0.70;0.60;;;;;;;;;;4925397;29;20531;-80
2023/05/13 13:08:49;;;;;;;0.70;0.70;;;;;;;;;;4938261;29;21012;-79
2023/05/13 13:11:20;;;;;;;0.70;0.60;;;;;;;;;;4938216;29;20541;-80
2023/05/13 13:13:51;;;;;;;0.70;0.60;;;;;;;;;;4938925;29;20796;-80
2023/05/13 13:16:24;;;;;;;0.70;0.60;;;;;;;;;;4932881;29;20429;-78
2023/05/13 13:18:51;;;;;;;0.80;0.60;;;;;;;;;;4936268;29;20480;-78
2023/05/13 13:21:21;;;;;;;0.70;0.60;;;;;;;;;;4941211;29;20445;-79
2023/05/13 13:23:48;;;;;;;0.70;0.60;;;;;;;;;;4918573;29;20509;-79
2023/05/13 13:26:15;;;;;;;0.80;0.77;;;;;;;;;;4940395;29;20456;-80
2023/05/13 13:28:42;;;;;;;0.70;0.60;;;;;;;;;;4939466;29;21108;-76
2023/05/13 13:31:10;;;;;;;0.70;0.60;;;;;;;;;;4926179;29;21101;-79
2023/05/13 13:33:37;;;;;;;0.70;0.60;;;;;;;;;;4931624;29;20923;-78
2023/05/13 13:36:05;;;;;;;1.03;0.93;;;;;;;;;;4936632;29;20462;-81
2023/05/13 13:38:34;;;;;;;1.03;0.77;;;;;;;;;;4952295;28;20470;-78
2023/05/13 13:41:02;;;;;;;0.73;0.57;;;;;;;;;;4932272;29;20985;-78
2023/05/13 13:43:29;;;;;;;0.70;0.70;;;;;;;;;;4939136;29;20444;-79
2023/05/13 13:45:56;;;;;;;0.70;0.50;;;;;;;;;;4922463;29;20440;-79
2023/05/13 13:48:24;;;;;;;0.70;0.50;;;;;;;;;;4940431;29;20945;-78
2023/05/13 13:50:53;;;;;;;0.70;0.50;;;;;;;;;;4955474;28;20807;-78
2023/05/13 13:53:25;;;;;;;0.70;0.50;;;;;;;;;;4953522;28;20468;-77
2023/05/13 13:55:52;;;;;;;0.80;0.60;;;;;;;;;;4943887;29;20779;-79
2023/05/13 13:58:19;;;;;;;0.70;0.50;;;;;;;;;;4936512;29;20443;-79
2023/05/13 14:00:47;;;;;;;0.80;0.60;;;;;;;;;;4939984;29;20529;-80
2023/05/13 14:03:17;;;;;;;0.80;0.60;;;;;;;;;;4938071;29;20964;-79
2023/05/13 14:05:46;;;;;;;1.27;1.17;;;;;;;;;;4941453;29;20943;-77
2023/05/13 14:08:13;;;;;;;1.30;1.20;;;;;;;;;;4941068;29;20479;-77
2023/05/13 14:10:39;;;;;;;0.80;0.60;;;;;;;;;;4942653;28;20468;-80
2023/05/13 14:13:06;;;;;;;0.80;0.50;;;;;;;;;;4946654;29;20563;-79
2023/05/13 14:15:37;;;;;;;0.80;0.60;;;;;;;;;;4945315;29;20967;-79
2023/05/13 14:18:10;;;;;;;1.70;1.00;;;;;;;;;;4943906;29;20472;-80
2023/05/13 14:20:38;;;;;;;0.80;0.50;;;;;;;;;;4943284;29;20455;-79
2023/05/13 14:23:06;;;;;;;0.87;0.67;;;;;;;;;;4942701;29;20992;-77
2023/05/13 14:25:33;;;;;;;0.70;0.50;;;;;;;;;;4930622;29;20793;-80
2023/05/13 14:28:00;;;;;;;0.80;0.50;;;;;;;;;;4949025;28;20493;-77
2023/05/13 14:30:31;;;;;;;0.80;0.60;;;;;;;;;;4935199;29;20485;-80
2023/05/13 14:32:59;;;;;;;0.80;0.60;;;;;;;;;;4940111;29;20557;-81
2023/05/13 14:35:26;;;;;;;0.70;0.60;;;;;;;;;;4950598;29;20560;-79
2023/05/13 14:37:54;;;;;;;0.80;0.80;;;;;;;;;;4945478;28;20485;-82
2023/05/13 14:40:22;;;;;;;0.80;0.70;;;;;;;;;;4948453;29;20929;-78
2023/05/13 14:42:50;;;;;;;0.80;0.80;;;;;;;;;;4925283;29;20489;-82
2023/05/13 14:45:17;;;;;;;0.80;0.80;;;;;;;;;;4944153;28;20528;-81
2023/05/13 14:47:47;;;;;;;0.80;0.70;;;;;;;;;;4948602;29;20475;-79
2023/05/13 14:50:14;;;;;;;1.00;0.90;;;;;;;;;;4949995;29;20456;-76